Time;durP1;ratioP1;P1;durP2;ratioP2;P2;SDS_P1;SDS_P2;PMS_P1;PMS_P2;Temp;Humidity;BMP_temperature;BMP_pressure;BME280_temperature;BME280_humidity;BME280_pressure;Samples;Min_cycle;Max_cycle;Signal;HPM_P1;HPM_P2
2021/10/01 00:01:41;;;;;;;;;;;;;;;13.20;100.00;99533.88;4952382;28;19918;-63
2021/10/01 00:04:06;;;;;;;;;;;;;;;12.91;100.00;99529.72;4955949;28;20299;-64
2021/10/01 00:06:31;;;;;;;;;;;;;;;12.85;100.00;99524.75;4950208;28;19994;-63
2021/10/01 00:08:57;;;;;;;;;;;;;;;12.78;100.00;99526.69;4956209;28;20388;-63
2021/10/01 00:11:22;;;;;;;;;;;;;;;12.97;100.00;99516.56;4952206;28;19929;-63
2021/10/01 00:13:48;;;;;;;;;;;;;;;12.98;100.00;99516.53;4949406;28;19976;-63
2021/10/01 00:16:14;;;;;;;;;;;;;;;12.87;100.00;99517.78;4949382;28;19928;-63
2021/10/01 00:18:39;;;;;;;;;;;;;;;12.82;100.00;99511.91;4959083;28;19925;-63
2021/10/01 00:21:05;;;;;;;;;;;;;;;12.70;100.00;99513.16;4949123;28;20303;-63
2021/10/01 00:23:31;;;;;;;;;;;;;;;12.84;100.00;99516.16;4950611;28;19914;-63
2021/10/01 00:25:57;;;;;;;;;;;;;;;12.79;100.00;99507.69;4951397;28;20020;-63
2021/10/01 00:28:22;;;;;;;;;;;;;;;12.64;100.00;99511.63;4949424;28;20331;-63
2021/10/01 00:30:48;;;;;;;;;;;;;;;12.98;100.00;99510.53;4955977;28;19972;-63
2021/10/01 00:33:13;;;;;;;;;;;;;;;12.59;100.00;99510.06;4950370;28;19933;-63
2021/10/01 00:35:38;;;;;;;;;;;;;;;12.49;100.00;99505.19;4950068;28;19922;-63
2021/10/01 00:38:04;;;;;;;;;;;;;;;12.17;100.00;99502.78;4954670;28;20703;-64
2021/10/01 00:40:29;;;;;;;;;;;;;;;12.77;100.00;99500.00;4956978;28;19950;-64
2021/10/01 00:42:55;;;;;;;;;;;;;;;12.91;100.00;99501.28;4949370;28;20269;-64
2021/10/01 00:45:20;;;;;;;;;;;;;;;12.97;100.00;99493.31;4951642;28;19935;-64
2021/10/01 00:47:45;;;;;;;;;;;;;;;12.43;100.00;99482.16;4953995;28;19919;-64
2021/10/01 00:50:11;;;;;;;;;;;;;;;12.32;100.00;99482.50;4948586;28;19996;-63
2021/10/01 00:52:36;;;;;;;;;;;;;;;12.76;100.00;99479.38;4952939;28;19975;-63
2021/10/01 00:55:02;;;;;;;;;;;;;;;12.56;100.00;99480.84;4954049;28;20009;-63
2021/10/01 00:57:28;;;;;;;;;;;;;;;12.39;100.00;99482.31;4951376;28;19972;-63
2021/10/01 00:59:54;;;;;;;;;;;;;;;12.70;100.00;99476.97;4957981;28;19923;-64
2021/10/01 01:02:24;;;;;;;;;;;;;;;12.80;100.00;99477.53;4952485;28;20311;-63
2021/10/01 01:04:49;;;;;;;;;;;;;;;12.51;100.00;99481.91;4951142;28;20404;-64
2021/10/01 01:07:21;;;;;;;;;;;;;;;12.63;100.00;99476.31;4951504;28;19919;-64
2021/10/01 01:09:49;;;;;;;;;;;;;;;12.52;100.00;99471.53;4963114;28;19974;-63
2021/10/01 01:12:44;;;;;;;;;;;;;;;12.50;100.00;99460.41;4960728;28;19978;-63
2021/10/01 01:15:17;;;;;;;;;;;;;;;12.44;100.00;99459.75;4960751;28;19919;-63
2021/10/01 01:17:43;;;;;;;;;;;;;;;12.65;100.00;99458.19;4951073;28;19919;-63
2021/10/01 01:20:12;;;;;;;;;;;;;;;12.66;100.00;99459.91;4951998;28;19951;-63
2021/10/01 01:23:16;;;;;;;;;;;;;;;12.75;100.00;99464.75;4961188;28;19929;-63
2021/10/01 01:25:43;;;;;;;;;;;;;;;12.46;100.00;99453.63;5025538;28;19932;-63
2021/10/01 01:28:32;;;;;;;;;;;;;;;12.53;100.00;99452.53;5019082;28;19917;-63
2021/10/01 01:31:11;;;;;;;;;;;;;;;12.93;100.00;99453.81;4971583;28;20346;-64
2021/10/01 01:33:37;;;;;;;;;;;;;;;12.66;100.00;99455.56;4966965;28;19925;-64
2021/10/01 01:36:03;;;;;;;;;;;;;;;12.66;100.00;99452.16;4948884;28;19914;-63
2021/10/01 01:38:30;;;;;;;;;;;;;;;13.01;100.00;99448.34;4933052;28;20239;-64
2021/10/01 01:40:56;;;;;;;;;;;;;;;12.80;100.00;99444.78;4935888;28;19930;-64
2021/10/01 01:43:21;;;;;;;;;;;;;;;12.79;100.00;99435.31;4954045;28;20426;-64
2021/10/01 01:45:46;;;;;;;;;;;;;;;12.63;100.00;99434.16;4947935;28;19953;-63
2021/10/01 01:48:12;;;;;;;;;;;;;;;12.28;100.00;99433.56;4948360;28;19968;-64
2021/10/01 01:50:37;;;;;;;;;;;;;;;12.31;100.00;99423.13;4953045;28;20611;-64
2021/10/01 01:53:03;;;;;;;;;;;;;;;12.16;100.00;99419.31;4948359;28;19919;-63
2021/10/01 01:55:29;;;;;;;;;;;;;;;12.05;100.00;99418.81;4948172;28;19919;-63
2021/10/01 01:57:54;;;;;;;;;;;;;;;11.91;100.00;99420.06;4947417;28;20517;-64
2021/10/01 02:00:20;;;;;;;;;;;;;;;12.11;100.00;99416.88;4965467;28;20447;-64
2021/10/01 02:02:46;;;;;;;;;;;;;;;11.84;100.00;99417.72;4953750;28;19918;-64
2021/10/01 02:05:11;;;;;;;;;;;;;;;12.06;100.00;99408.41;4961042;28;19944;-63
2021/10/01 02:07:37;;;;;;;;;;;;;;;12.13;100.00;99412.50;4952109;28;19930;-64
2021/10/01 02:10:03;;;;;;;;;;;;;;;12.02;100.00;99409.44;4955268;28;19914;-63
2021/10/01 02:12:29;;;;;;;;;;;;;;;11.97;100.00;99402.69;4980529;28;19923;-63
2021/10/01 02:14:55;;;;;;;;;;;;;;;12.19;100.00;99402.88;4955810;28;20035;-63
2021/10/01 02:17:20;;;;;;;;;;;;;;;12.24;100.00;99398.41;4949016;28;20384;-64
2021/10/01 02:19:46;;;;;;;;;;;;;;;12.01;100.00;99389.66;4949528;28;19923;-63
2021/10/01 02:22:12;;;;;;;;;;;;;;;11.85;100.00;99398.75;4951279;28;19922;-63
2021/10/01 02:24:37;;;;;;;;;;;;;;;12.31;100.00;99394.72;4949086;28;19918;-63
2021/10/01 02:27:08;;;;;;;;;;;;;;;12.30;100.00;99395.63;4953761;28;19922;-64
2021/10/01 02:29:37;;;;;;;;;;;;;;;12.15;100.00;99396.94;4966847;28;19922;-64
2021/10/01 02:32:03;;;;;;;;;;;;;;;12.26;100.00;99388.88;4969249;28;19919;-64
2021/10/01 02:34:39;;;;;;;;;;;;;;;12.21;100.00;99380.44;4953292;28;19925;-63
2021/10/01 02:37:05;;;;;;;;;;;;;;;12.24;100.00;99380.31;4936147;28;19914;-63
2021/10/01 02:39:32;;;;;;;;;;;;;;;12.16;100.00;99382.31;4953084;28;19929;-64
2021/10/01 02:41:57;;;;;;;;;;;;;;;11.89;100.00;99377.16;4985726;28;20015;-64
2021/10/01 02:44:23;;;;;;;;;;;;;;;12.03;100.00;99371.53;4953801;28;19952;-63
2021/10/01 02:46:48;;;;;;;;;;;;;;;12.31;100.00;99376.66;4988483;28;19925;-63
2021/10/01 02:49:14;;;;;;;;;;;;;;;12.06;100.00;99367.09;4955851;28;19926;-63
2021/10/01 02:51:40;;;;;;;;;;;;;;;12.18;100.00;99372.78;4959446;28;19957;-63
2021/10/01 02:54:09;;;;;;;;;;;;;;;11.93;100.00;99371.84;4963281;28;19941;-63
2021/10/01 02:56:36;;;;;;;;;;;;;;;11.82;100.00;99362.72;4955108;28;20368;-63
2021/10/01 02:59:02;;;;;;;;;;;;;;;11.68;100.00;99363.16;4954344;28;19915;-64
2021/10/01 03:01:28;;;;;;;;;;;;;;;11.83;100.00;99361.81;4955821;28;20419;-63
2021/10/01 03:03:55;;;;;;;;;;;;;;;11.78;100.00;99364.53;4960255;28;19918;-63
2021/10/01 03:06:21;;;;;;;;;;;;;;;11.64;100.00;99364.13;4961687;28;19925;-63
2021/10/01 03:08:46;;;;;;;;;;;;;;;11.42;100.00;99357.00;4961914;28;19922;-63
2021/10/01 03:11:13;;;;;;;;;;;;;;;11.56;100.00;99364.34;4963082;28;19993;-62
2021/10/01 03:13:39;;;;;;;;;;;;;;;11.85;100.00;99360.88;4980747;28;19938;-61
2021/10/01 03:16:04;;;;;;;;;;;;;;;11.88;100.00;99362.53;4956658;28;19919;-62
2021/10/01 03:18:30;;;;;;;;;;;;;;;11.62;100.00;99353.00;4962652;28;19918;-62
2021/10/01 03:20:55;;;;;;;;;;;;;;;11.85;100.00;99357.44;4960744;28;19919;-62
2021/10/01 03:23:21;;;;;;;;;;;;;;;11.75;100.00;99356.06;4960876;28;19914;-62
2021/10/01 03:25:47;;;;;;;;;;;;;;;11.62;100.00;99356.41;4963325;28;19914;-62
2021/10/01 03:28:12;;;;;;;;;;;;;;;11.81;100.00;99350.69;4958652;28;19964;-61
2021/10/01 03:30:39;;;;;;;;;;;;;;;11.61;100.00;99352.16;4965560;28;19926;-62
2021/10/01 03:33:05;;;;;;;;;;;;;;;11.77;100.00;99349.97;4960475;28;19914;-62
2021/10/01 03:35:31;;;;;;;;;;;;;;;11.85;100.00;99354.88;4967243;28;19914;-62
2021/10/01 03:37:57;;;;;;;;;;;;;;;11.49;100.00;99335.34;4962152;28;19914;-60
2021/10/01 03:40:23;;;;;;;;;;;;;;;11.90;100.00;99347.84;4959062;28;19983;-61
2021/10/01 03:42:49;;;;;;;;;;;;;;;11.73;100.00;99343.19;4958665;28;19928;-61
2021/10/01 03:45:14;;;;;;;;;;;;;;;11.64;100.00;99339.16;4959807;28;20018;-62
2021/10/01 03:47:39;;;;;;;;;;;;;;;11.78;100.00;99337.91;4960289;28;20470;-61
2021/10/01 03:50:05;;;;;;;;;;;;;;;11.81;100.00;99341.22;4961102;28;19921;-62
2021/10/01 03:52:32;;;;;;;;;;;;;;;11.48;100.00;99332.78;4960379;28;19976;-62
2021/10/01 03:54:58;;;;;;;;;;;;;;;11.52;100.00;99329.22;4961703;28;19940;-62
2021/10/01 03:57:23;;;;;;;;;;;;;;;11.70;100.00;99327.81;4961160;28;19922;-62
2021/10/01 03:59:49;;;;;;;;;;;;;;;11.67;100.00;99328.75;4961762;28;20311;-62
2021/10/01 04:02:14;;;;;;;;;;;;;;;11.69;100.00;99320.97;4960932;28;19925;-62
2021/10/01 04:04:39;;;;;;;;;;;;;;;11.43;100.00;99319.19;4967525;28;20524;-62
2021/10/01 04:07:05;;;;;;;;;;;;;;;11.70;100.00;99318.34;4959853;28;19918;-62
2021/10/01 04:09:31;;;;;;;;;;;;;;;11.21;100.00;99314.66;4961296;28;19970;-61
2021/10/01 04:11:57;;;;;;;;;;;;;;;11.59;100.00;99312.69;4961553;28;19922;-62
2021/10/01 04:14:23;;;;;;;;;;;;;;;11.61;100.00;99316.06;4963477;28;20009;-62
2021/10/01 04:16:48;;;;;;;;;;;;;;;11.69;100.00;99316.63;4959401;28;20029;-61
2021/10/01 04:19:14;;;;;;;;;;;;;;;11.54;100.00;99306.81;4966085;28;19914;-62
2021/10/01 04:21:39;;;;;;;;;;;;;;;11.61;100.00;99298.00;4959036;28;20016;-61
2021/10/01 04:24:05;;;;;;;;;;;;;;;11.69;100.00;99301.16;4957363;28;19994;-62
2021/10/01 04:26:30;;;;;;;;;;;;;;;11.74;100.00;99298.44;4960171;28;19914;-62
2021/10/01 04:28:56;;;;;;;;;;;;;;;11.47;100.00;99300.13;4958293;28;19925;-62
2021/10/01 04:31:21;;;;;;;;;;;;;;;11.87;100.00;99296.31;4959678;28;19914;-62
2021/10/01 04:33:47;;;;;;;;;;;;;;;11.54;100.00;99301.66;4960264;28;19957;-62
2021/10/01 04:36:12;;;;;;;;;;;;;;;11.62;100.00;99294.50;4958305;28;19933;-62
2021/10/01 04:38:39;;;;;;;;;;;;;;;11.33;100.00;99302.31;4959524;28;20009;-62
2021/10/01 04:41:05;;;;;;;;;;;;;;;11.42;100.00;99302.88;4960426;28;19918;-62
2021/10/01 04:43:30;;;;;;;;;;;;;;;11.55;100.00;99299.91;4954729;28;20328;-62
2021/10/01 04:45:56;;;;;;;;;;;;;;;11.64;100.00;99300.47;4953899;28;19973;-62
2021/10/01 04:48:21;;;;;;;;;;;;;;;11.59;100.00;99299.78;4959246;28;20368;-62
2021/10/01 04:50:47;;;;;;;;;;;;;;;11.51;100.00;99296.59;4958862;28;19922;-61
2021/10/01 04:53:12;;;;;;;;;;;;;;;11.64;100.00;99300.47;4955083;28;20013;-60
2021/10/01 04:55:38;;;;;;;;;;;;;;;11.66;100.00;99298.69;4959591;28;20384;-61
2021/10/01 04:58:04;;;;;;;;;;;;;;;11.59;100.00;99298.94;4960306;28;20419;-62
2021/10/01 05:00:29;;;;;;;;;;;;;;;11.39;100.00;99296.97;4958333;28;19976;-62
2021/10/01 05:02:55;;;;;;;;;;;;;;;11.66;100.00;99288.38;4960799;28;19922;-61
2021/10/01 05:05:20;;;;;;;;;;;;;;;11.59;100.00;99292.03;4956207;28;19914;-62
2021/10/01 05:07:46;;;;;;;;;;;;;;;11.68;100.00;99291.75;4953721;28;19926;-62
2021/10/01 05:10:12;;;;;;;;;;;;;;;11.43;100.00;99288.25;4959543;28;20383;-62
2021/10/01 05:12:38;;;;;;;;;;;;;;;11.45;100.00;99291.63;4956210;28;19918;-62
2021/10/01 05:15:03;;;;;;;;;;;;;;;11.43;100.00;99288.25;4960623;28;19925;-61
2021/10/01 05:17:29;;;;;;;;;;;;;;;11.44;100.00;99287.34;4960883;28;19932;-61
2021/10/01 05:19:54;;;;;;;;;;;;;;;11.52;100.00;99286.22;4960046;28;19914;-62
2021/10/01 05:22:20;;;;;;;;;;;;;;;11.72;100.00;99284.72;4961051;28;19924;-62
2021/10/01 05:24:48;;;;;;;;;;;;;;;11.81;100.00;99286.19;4944517;28;20342;-62
2021/10/01 05:27:13;;;;;;;;;;;;;;;11.67;100.00;99277.16;4976666;28;19919;-62
2021/10/01 05:29:39;;;;;;;;;;;;;;;11.47;100.00;99285.53;4962699;28;19924;-62
2021/10/01 05:32:04;;;;;;;;;;;;;;;11.51;100.00;99281.09;4972851;28;19957;-62
2021/10/01 05:34:30;;;;;;;;;;;;;;;11.42;100.00;99273.66;4961326;28;20390;-61
2021/10/01 05:36:59;;;;;;;;;;;;;;;11.44;100.00;99275.28;4949342;28;19914;-61
2021/10/01 05:39:24;;;;;;;;;;;;;;;11.41;100.00;99269.41;4960680;28;20415;-62
2021/10/01 05:41:49;;;;;;;;;;;;;;;11.59;100.00;99271.41;4957704;28;19914;-62
2021/10/01 05:44:15;;;;;;;;;;;;;;;11.52;100.00;99264.75;4960106;28;20613;-62
2021/10/01 05:46:45;;;;;;;;;;;;;;;11.43;100.00;99267.63;4959960;28;20424;-62
2021/10/01 05:49:18;;;;;;;;;;;;;;;11.53;100.00;99269.00;4954237;28;19976;-63
2021/10/01 05:51:49;;;;;;;;;;;;;;;11.61;100.00;99271.34;4949226;28;19933;-64
2021/10/01 05:54:21;;;;;;;;;;;;;;;11.63;100.00;99260.09;4960300;28;20617;-63
2021/10/01 05:56:47;;;;;;;;;;;;;;;11.78;100.00;99257.91;4959101;28;19945;-64
2021/10/01 05:59:13;;;;;;;;;;;;;;;11.59;100.00;99262.81;4959306;28;20014;-64
2021/10/01 06:01:38;;;;;;;;;;;;;;;11.61;100.00;99261.00;4956847;28;20009;-63
2021/10/01 06:04:03;;;;;;;;;;;;;;;11.70;100.00;99256.44;4944774;28;19922;-63
2021/10/01 06:06:29;;;;;;;;;;;;;;;11.71;100.00;99252.09;4951281;28;19930;-63
2021/10/01 06:08:55;;;;;;;;;;;;;;;11.80;100.00;99245.81;4949768;28;19929;-63
2021/10/01 06:11:20;;;;;;;;;;;;;;;11.75;100.00;99258.84;4948887;28;19958;-64
2021/10/01 06:13:45;;;;;;;;;;;;;;;11.71;100.00;99252.94;4947775;28;19936;-63
2021/10/01 06:16:11;;;;;;;;;;;;;;;11.93;100.00;99257.44;4959949;28;19922;-63
2021/10/01 06:18:36;;;;;;;;;;;;;;;11.95;100.00;99252.22;4955942;28;19975;-63
2021/10/01 06:21:02;;;;;;;;;;;;;;;11.84;100.00;99249.97;4957437;28;20967;-64
2021/10/01 06:23:33;;;;;;;;;;;;;;;12.03;100.00;99252.81;4959353;28;19926;-64
2021/10/01 06:25:59;;;;;;;;;;;;;;;12.01;100.00;99250.25;4957340;28;20429;-64
2021/10/01 06:28:24;;;;;;;;;;;;;;;12.28;100.00;99257.97;4955852;28;19922;-63
2021/10/01 06:30:50;;;;;;;;;;;;;;;12.14;100.00;99255.88;4955243;28;19922;-63
2021/10/01 06:33:15;;;;;;;;;;;;;;;12.33;100.00;99256.06;4954586;28;19967;-63
2021/10/01 06:35:41;;;;;;;;;;;;;;;12.57;100.00;99256.94;4953644;28;19926;-63
2021/10/01 06:38:06;;;;;;;;;;;;;;;12.77;100.00;99253.59;4952813;28;19930;-63
2021/10/01 06:40:32;;;;;;;;;;;;;;;12.67;100.00;99260.88;4955651;28;19975;-63
2021/10/01 06:42:57;;;;;;;;;;;;;;;12.81;100.00;99250.03;4953680;28;19919;-62
2021/10/01 06:45:28;;;;;;;;;;;;;;;12.53;100.00;99247.63;4954113;28;20009;-63
2021/10/01 07:29:41;;;;;;;;;;;;;;;14.79;88.36;99220.34;4958661;28;19929;-63
2021/10/01 08:20:26;;;;;;;;;;;;;;;16.89;75.66;99209.03;4955321;28;20346;-63
2021/10/01 08:22:51;;;;;;;;;;;;;;;17.01;75.35;99205.75;4954959;28;19915;-65
2021/10/01 08:25:17;;;;;;;;;;;;;;;17.19;75.82;99197.84;4955809;28;19914;-64
2021/10/01 08:27:42;;;;;;;;;;;;;;;17.49;73.27;99196.13;4940756;28;19945;-63
2021/10/01 08:30:09;;;;;;;;;;;;;;;17.12;73.28;99194.75;4957550;28;19961;-64
2021/10/01 08:32:34;;;;;;;;;;;;;;;17.86;71.37;99188.81;4971434;28;19969;-63
2021/10/01 08:35:00;;;;;;;;;;;;;;;18.00;70.17;99188.00;4956535;28;19989;-63
2021/10/01 08:37:25;;;;;;;;;;;;;;;17.80;70.94;99181.31;4954839;28;19914;-63
2021/10/01 08:39:51;;;;;;;;;;;;;;;17.78;70.25;99175.34;4956596;28;20284;-64
2021/10/01 08:42:16;;;;;;;;;;;;;;;18.54;69.81;99172.53;4955183;28;19922;-63
2021/10/01 08:44:42;;;;;;;;;;;;;;;17.77;71.54;99179.72;4955890;28;19918;-64
2021/10/01 08:47:10;;;;;;;;;;;;;;;17.79;70.67;99171.84;4955342;28;20400;-64
2021/10/01 08:49:35;;;;;;;;;;;;;;;17.89;68.67;99175.59;4954955;28;19918;-63
2021/10/01 08:52:00;;;;;;;;;;;;;;;18.00;70.29;99167.16;4948341;28;19990;-63
2021/10/01 08:54:26;;;;;;;;;;;;;;;18.14;70.55;99167.16;4956176;28;19925;-64
2021/10/01 08:56:51;;;;;;;;;;;;;;;18.26;68.89;99175.16;4955470;28;19918;-64
2021/10/01 08:59:17;;;;;;;;;;;;;;;19.04;67.80;99178.13;4958229;28;20245;-64
2021/10/01 09:01:43;;;;;;;;;;;;;;;17.65;70.04;99174.38;4955475;28;20265;-64
2021/10/01 09:04:10;;;;;;;;;;;;;;;17.92;71.73;99178.00;4954761;28;19921;-64
2021/10/01 09:06:35;;;;;;;;;;;;;;;17.72;71.86;99171.34;4961557;28;19937;-65
2021/10/01 09:09:05;;;;;;;;;;;;;;;17.52;71.02;99174.28;4955943;28;19942;-64
2021/10/01 09:11:35;;;;;;;;;;;;;;;17.97;70.53;99175.13;4955775;28;19919;-63
2021/10/01 09:14:01;;;;;;;;;;;;;;;18.26;71.25;99170.78;4986311;28;19961;-64
2021/10/01 09:16:26;;;;;;;;;;;;;;;18.60;69.58;99169.53;4956725;28;20409;-63
2021/10/01 09:18:52;;;;;;;;;;;;;;;18.74;68.53;99166.06;4955376;28;20044;-64
2021/10/01 09:21:21;;;;;;;;;;;;;;;18.73;67.81;99174.00;4956549;28;19921;-64
2021/10/01 09:23:54;;;;;;;;;;;;;;;19.09;65.93;99157.81;4955450;28;19915;-65
2021/10/01 09:26:20;;;;;;;;;;;;;;;19.00;67.14;99166.22;4987294;28;20401;-64
2021/10/01 09:28:51;;;;;;;;;;;;;;;18.30;64.55;99155.78;4953163;28;20049;-64
2021/10/01 09:31:28;;;;;;;;;;;;;;;19.33;66.52;99157.13;4955360;28;19950;-64
2021/10/01 09:33:54;;;;;;;;;;;;;;;18.35;66.19;99154.56;4962593;28;19918;-63
2021/10/01 09:36:19;;;;;;;;;;;;;;;19.04;66.72;99144.19;4938970;28;19918;-64
2021/10/01 09:38:45;;;;;;;;;;;;;;;18.48;68.55;99153.81;4955029;28;19922;-64
2021/10/01 09:41:11;;;;;;;;;;;;;;;18.55;68.63;99144.69;4955089;28;19918;-64
2021/10/01 09:43:36;;;;;;;;;;;;;;;19.36;67.12;99143.84;4970105;28;19925;-65
2021/10/01 09:46:09;;;;;;;;;;;;;;;19.15;69.52;99141.72;4955823;28;20315;-64
2021/10/01 09:48:35;;;;;;;;;;;;;;;19.36;64.51;99142.09;4969420;28;19945;-64
2021/10/01 09:51:08;;;;;;;;;;;;;;;18.99;65.87;99139.25;4986926;28;19918;-64
2021/10/01 09:53:46;;;;;;;;;;;;;;;18.87;67.43;99134.84;4981715;28;20250;-64
2021/10/01 09:56:31;;;;;;;;;;;;;;;19.03;67.75;99139.91;4952915;28;19922;-65
2021/10/01 09:59:15;;;;;;;;;;;;;;;18.59;66.31;99135.75;4969405;28;19914;-64
2021/10/01 10:01:59;;;;;;;;;;;;;;;18.21;66.75;99136.34;4969759;28;19957;-65
2021/10/01 10:04:25;;;;;;;;;;;;;;;18.14;66.31;99129.81;4964340;28;19918;-64
2021/10/01 10:06:50;;;;;;;;;;;;;;;18.79;68.29;99126.66;4954691;28;19918;-64
2021/10/01 10:09:16;;;;;;;;;;;;;;;19.27;65.79;99120.97;4956121;28;20299;-64
2021/10/01 10:11:42;;;;;;;;;;;;;;;19.37;63.72;99129.88;4939300;28;19914;-64
2021/10/01 10:14:11;;;;;;;;;;;;;;;19.31;66.02;99120.66;4954108;28;19997;-64
2021/10/01 10:16:37;;;;;;;;;;;;;;;19.48;64.40;99124.78;4955842;28;20341;-65
2021/10/01 10:19:04;;;;;;;;;;;;;;;19.42;63.58;99118.19;4955107;28;19914;-64
2021/10/01 10:21:29;;;;;;;;;;;;;;;20.15;61.65;99121.16;4954242;28;19918;-64
2021/10/01 10:23:56;;;;;;;;;;;;;;;20.62;61.16;99112.59;4954245;28;20269;-64
2021/10/01 10:26:22;;;;;;;;;;;;;;;21.10;58.46;99103.91;4952495;28;19961;-64
2021/10/01 10:28:47;;;;;;;;;;;;;;;20.51;58.84;99109.03;4953914;28;19965;-64
2021/10/01 10:31:14;;;;;;;;;;;;;;;20.66;62.89;99110.56;4950207;28;19933;-63
2021/10/01 10:33:49;;;;;;;;;;;;;;;20.65;58.21;99106.31;4943996;28;20041;-63
2021/10/01 10:36:28;;;;;;;;;;;;;;;20.19;56.51;99109.53;4983577;28;20291;-65
2021/10/01 10:38:57;;;;;;;;;;;;;;;21.07;56.41;99096.25;4954001;28;20409;-63
2021/10/01 10:41:23;;;;;;;;;;;;;;;21.28;54.66;99099.09;4953179;28;19921;-65
2021/10/01 10:43:51;;;;;;;;;;;;;;;21.60;53.89;99093.19;4951458;28;19922;-64
2021/10/01 10:46:35;;;;;;;;;;;;;;;21.37;54.55;99097.53;4969586;28;20288;-64
2021/10/01 10:49:20;;;;;;;;;;;;;;;21.92;57.56;99091.59;4965838;28;19922;-65
2021/10/01 10:51:57;;;;;;;;;;;;;;;22.01;51.45;99087.41;4972904;28;19918;-64
2021/10/01 10:54:23;;;;;;;;;;;;;;;21.72;52.53;99081.81;4967144;28;20022;-64
2021/10/01 10:57:07;;;;;;;;;;;;;;;21.90;53.30;99084.78;4958678;28;20012;-63
2021/10/01 10:59:32;;;;;;;;;;;;;;;21.36;49.39;99081.00;4960336;28;19925;-64
2021/10/01 11:02:16;;;;;;;;;;;;;;;21.77;54.06;99078.81;4958656;28;19918;-64
2021/10/01 11:04:41;;;;;;;;;;;;;;;22.33;54.17;99076.22;4956583;28;19914;-64
2021/10/01 11:07:35;;;;;;;;;;;;;;;21.98;52.04;99065.84;4959941;28;19925;-65
2021/10/01 11:10:20;;;;;;;;;;;;;;;22.48;49.74;99069.72;4947335;28;20276;-64
2021/10/01 11:12:46;;;;;;;;;;;;;;;22.33;55.93;99060.47;4964123;28;19918;-63
2021/10/01 11:15:15;;;;;;;;;;;;;;;21.61;51.02;99069.50;4966005;28;19975;-64
2021/10/01 11:17:40;;;;;;;;;;;;;;;21.68;55.80;99064.63;4976767;28;19922;-63
2021/10/01 11:20:06;;;;;;;;;;;;;;;21.86;49.74;99062.38;4964742;28;20395;-63
2021/10/01 11:22:39;;;;;;;;;;;;;;;20.89;50.62;99062.66;4964828;28;20284;-64
2021/10/01 11:25:07;;;;;;;;;;;;;;;21.61;50.28;99066.06;4965726;28;19929;-64
2021/10/01 11:27:33;;;;;;;;;;;;;;;21.14;48.96;99055.56;4965424;28;19918;-63
2021/10/01 11:29:58;;;;;;;;;;;;;;;21.14;48.78;99045.09;4966076;28;20346;-63
2021/10/01 11:32:25;;;;;;;;;;;;;;;21.45;47.21;99042.81;4964882;28;20013;-63
2021/10/01 11:35:00;;;;;;;;;;;;;;;21.38;50.59;99052.06;4963809;28;19921;-63
2021/10/01 11:37:36;;;;;;;;;;;;;;;21.78;47.13;99035.91;4978797;28;20351;-63
2021/10/01 11:40:06;;;;;;;;;;;;;;;21.49;52.17;99044.25;4961043;28;19929;-64
2021/10/01 11:42:37;;;;;;;;;;;;;;;21.33;51.72;99028.84;4963744;28;19918;-64
2021/10/01 11:45:11;;;;;;;;;;;;;;;22.22;50.22;99034.25;4962857;28;19959;-63
2021/10/01 11:47:37;;;;;;;;;;;;;;;21.58;53.90;99027.81;4995279;28;19918;-64
2021/10/01 11:50:03;;;;;;;;;;;;;;;21.37;46.03;99024.19;4960629;28;20438;-64
2021/10/01 11:52:28;;;;;;;;;;;;;;;21.79;53.07;99019.25;4953893;28;19931;-64
2021/10/01 11:54:58;;;;;;;;;;;;;;;21.87;50.76;99017.69;4952632;28;20372;-64
2021/10/01 11:57:34;;;;;;;;;;;;;;;22.24;48.57;99008.75;4989777;28;19918;-64
2021/10/01 12:00:02;;;;;;;;;;;;;;;22.86;44.82;99010.66;4956972;28;19922;-64
2021/10/01 12:02:35;;;;;;;;;;;;;;;21.99;47.47;98999.34;4955379;28;20384;-65
2021/10/01 12:05:20;;;;;;;;;;;;;;;21.14;45.97;98994.50;4954981;28;20423;-64
2021/10/01 12:07:47;;;;;;;;;;;;;;;22.09;49.33;98990.59;4954842;28;20269;-64
2021/10/01 12:10:12;;;;;;;;;;;;;;;21.71;48.69;98985.75;4956259;28;19918;-65
2021/10/01 12:12:38;;;;;;;;;;;;;;;21.72;45.58;98975.16;4956349;28;20131;-64
2021/10/01 12:15:03;;;;;;;;;;;;;;;22.02;46.42;98960.56;4955249;28;19918;-64
2021/10/01 12:17:36;;;;;;;;;;;;;;;21.80;43.06;98974.53;4952042;28;19961;-64
2021/10/01 12:20:02;;;;;;;;;;;;;;;21.87;45.09;98965.25;4961305;28;20474;-64
2021/10/01 12:22:32;;;;;;;;;;;;;;;22.17;48.82;98961.16;4953914;28;20428;-64
2021/10/01 12:24:57;;;;;;;;;;;;;;;22.51;46.11;98967.13;4936158;28;20461;-64
2021/10/01 12:27:40;;;;;;;;;;;;;;;22.39;49.56;98965.50;4951021;28;20439;-65
2021/10/01 12:30:06;;;;;;;;;;;;;;;22.05;45.26;98956.88;4950964;28;20003;-64
2021/10/01 12:32:32;;;;;;;;;;;;;;;21.97;42.31;98969.78;4950157;28;19918;-65
2021/10/01 12:34:59;;;;;;;;;;;;;;;21.81;43.58;98967.53;4937057;28;19929;-65
2021/10/01 12:37:26;;;;;;;;;;;;;;;21.67;42.53;98951.09;4953267;28;20351;-64
2021/10/01 12:39:55;;;;;;;;;;;;;;;21.78;43.05;98949.41;4937685;28;19929;-65
2021/10/01 12:42:22;;;;;;;;;;;;;;;21.49;42.22;98949.94;4985790;28;19926;-64
2021/10/01 12:45:07;;;;;;;;;;;;;;;22.14;42.46;98949.09;4945701;28;20281;-64
2021/10/01 12:47:33;;;;;;;;;;;;;;;21.93;43.58;98953.44;4950278;28;20028;-65
2021/10/01 12:50:06;;;;;;;;;;;;;;;22.57;42.85;98954.47;4952068;28;19926;-64
2021/10/01 12:52:32;;;;;;;;;;;;;;;22.71;40.65;98951.50;4951296;28;19918;-65
2021/10/01 12:55:00;;;;;;;;;;;;;;;22.74;42.52;98949.47;4952626;28;20839;-64
2021/10/01 12:57:28;;;;;;;;;;;;;;;23.20;45.06;98949.25;4954497;28;19951;-64
2021/10/01 13:00:03;;;;;;;;;;;;;;;23.14;46.79;98953.19;4962011;28;20013;-65
2021/10/01 13:02:34;;;;;;;;;;;;;;;23.05;46.30;98951.34;4963561;28;20212;-65
2021/10/01 13:05:04;;;;;;;;;;;;;;;23.04;44.02;98944.44;4953212;28;19957;-64
2021/10/01 13:07:32;;;;;;;;;;;;;;;23.62;45.27;98933.34;4957170;28;20065;-65
2021/10/01 13:09:59;;;;;;;;;;;;;;;23.86;47.90;98931.22;4956802;28;19931;-67
2021/10/01 13:12:31;;;;;;;;;;;;;;;23.66;49.25;98925.06;5006143;28;19968;-65
2021/10/01 13:15:29;;;;;;;;;;;;;;;22.94;46.52;98918.94;4957759;28;19918;-64
2021/10/01 13:17:58;;;;;;;;;;;;;;;23.42;43.89;98906.16;4979092;28;19934;-64
2021/10/01 13:20:25;;;;;;;;;;;;;;;23.09;46.98;98921.25;4936702;28;20524;-63
2021/10/01 13:23:00;;;;;;;;;;;;;;;22.96;47.66;98927.50;4956448;28;19918;-64
2021/10/01 13:25:27;;;;;;;;;;;;;;;22.80;46.97;98921.88;4944304;28;20350;-63
2021/10/01 13:27:53;;;;;;;;;;;;;;;23.09;48.48;98924.69;4944952;28;20476;-62
2021/10/01 13:30:18;;;;;;;;;;;;;;;23.28;47.60;98921.31;4949266;28;20033;-62
2021/10/01 13:32:44;;;;;;;;;;;;;;;23.11;50.18;98912.25;4952193;28;20005;-62
2021/10/01 13:35:11;;;;;;;;;;;;;;;23.15;49.08;98907.59;4940347;28;20041;-62
2021/10/01 13:37:36;;;;;;;;;;;;;;;23.32;51.61;98900.88;4956072;28;19915;-62
2021/10/01 13:40:03;;;;;;;;;;;;;;;23.16;47.51;98901.38;4953789;28;20253;-62
2021/10/01 13:42:28;;;;;;;;;;;;;;;23.26;49.24;98891.72;4956711;28;19918;-62
2021/10/01 13:44:53;;;;;;;;;;;;;;;22.54;50.20;98890.75;4960605;28;19929;-62
2021/10/01 13:47:19;;;;;;;;;;;;;;;22.25;49.65;98884.47;4957619;28;19914;-62
2021/10/01 13:49:44;;;;;;;;;;;;;;;22.24;48.33;98891.50;4971241;23;19929;-78
2021/10/01 13:52:09;;;;;;;;;;;;;;;22.82;51.51;98891.06;4931559;28;19927;-78
2021/10/01 13:54:35;;;;;;;;;;;;;;;22.54;49.61;98890.75;4969557;28;19952;-78
2021/10/01 13:57:00;;;;;;;;;;;;;;;22.29;52.56;98888.50;4970636;28;19921;-77
2021/10/01 13:59:25;;;;;;;;;;;;;;;22.77;48.46;98890.63;4933712;28;19929;-77
2021/10/01 14:01:51;;;;;;;;;;;;;;;22.00;47.63;98880.38;4943566;28;19923;-77
2021/10/01 14:04:16;;;;;;;;;;;;;;;22.14;48.05;98880.88;4943914;28;20073;-78
2021/10/01 14:06:42;;;;;;;;;;;;;;;21.76;49.92;98872.69;4959853;28;19928;-78
2021/10/01 14:09:07;;;;;;;;;;;;;;;22.13;48.80;98876.63;4898100;28;19927;-78
2021/10/01 14:11:32;;;;;;;;;;;;;;;21.96;50.67;98874.53;4970012;28;20450;-78
2021/10/01 14:13:59;;;;;;;;;;;;;;;21.90;48.16;98875.03;4954415;28;19928;-78